Terminal Aerodrome Forecast
Issued by NWS

Home | Current Version | Previous Version | Graphics & Text | Print | Product List | Glossary On
Versions: 1 2 3 4 5 6 7 8 9 10 11 12 13 14 15 16
000
FTUS43 KUNR 280333 AAB
TAFGCC
TAF AMD
KGCC 280333Z 2804/2824 VRB05KT P6SM SCT040 BKN080
      TEMPO 2804/2806 6SM -TSRA BKN050CB
     FM280600 VRB05KT P6SM SCT040 BKN080
      TEMPO 2810/2814 -SHRA OVC015
     FM281700 34009KT P6SM -SHRA OVC040=

USA.gov is the U.S. government's official web portal to all federal, state and local government web resources and services.